Time;durP1;ratioP1;P1;durP2;ratioP2;P2;SDS_P1;SDS_P2;PMS_P1;PMS_P2;Temp;Humidity;BMP_temperature;BMP_pressure;BME280_temperature;BME280_humidity;BME280_pressure;Samples;Min_cycle;Max_cycle;Signal;HPM_P1;HPM_P2
2021/11/18 00:01:51;;;;;;;3.77;2.03;;;10.10;99.90;;;;;;4979787;28;20704;-83
2021/11/18 00:04:17;;;;;;;6.97;1.03;;;10.10;99.90;;;;;;4996836;28;20708;-83
2021/11/18 00:06:44;;;;;;;3.40;2.37;;;10.10;99.90;;;;;;4997527;28;20230;-83
2021/11/18 00:09:10;;;;;;;3.60;1.17;;;10.10;99.90;;;;;;4980149;28;20288;-83
2021/11/18 00:11:36;;;;;;;3.57;1.10;;;10.00;99.90;;;;;;4961835;28;20377;-83
2021/11/18 00:14:02;;;;;;;3.03;1.53;;;10.00;99.90;;;;;;4996076;28;20680;-84
2021/11/18 00:16:28;;;;;;;17.57;1.37;;;10.00;99.90;;;;;;5014930;28;20219;-83
2021/11/18 00:18:54;;;;;;;5.80;2.13;;;10.00;99.90;;;;;;4994470;28;20215;-83
2021/11/18 00:21:23;;;;;;;8.37;0.97;;;9.90;99.90;;;;;;4993668;28;20231;-83
2021/11/18 00:23:53;;;;;;;4.30;1.30;;;9.90;99.90;;;;;;4994039;28;20286;-84
2021/11/18 00:26:20;;;;;;;5.50;1.83;;;9.90;99.90;;;;;;4994192;28;20283;-84
2021/11/18 00:28:47;;;;;;;4.57;2.17;;;9.90;99.90;;;;;;4994003;28;20227;-83
2021/11/18 00:31:15;;;;;;;3.23;1.17;;;9.90;99.90;;;;;;4993700;28;20267;-84
2021/11/18 00:33:41;;;;;;;1.73;1.47;;;9.90;99.90;;;;;;4993396;28;20239;-83
2021/11/18 00:36:07;;;;;;;6.20;2.23;;;9.90;99.90;;;;;;4989071;28;20299;-84
2021/11/18 00:38:35;;;;;;;4.53;0.70;;;10.00;99.90;;;;;;4974847;28;20705;-84
2021/11/18 00:41:02;;;;;;;7.23;1.17;;;10.00;99.90;;;;;;4994257;28;20192;-84
2021/11/18 00:43:28;;;;;;;11.50;2.03;;;10.00;99.90;;;;;;4976782;28;20352;-84
2021/11/18 00:45:54;;;;;;;4.63;1.60;;;10.00;99.90;;;;;;4994093;28;20212;-84
2021/11/18 00:48:20;;;;;;;4.00;1.33;;;10.10;99.90;;;;;;5000435;28;20763;-85
2021/11/18 00:50:55;;;;;;;3.80;1.30;;;10.10;99.90;;;;;;4993083;28;20225;-84
2021/11/18 00:53:21;;;;;;;0.97;0.87;;;10.10;99.90;;;;;;4992183;28;20177;-84
2021/11/18 00:55:47;;;;;;;6.40;1.40;;;10.10;99.90;;;;;;4994025;28;20251;-84
2021/11/18 00:58:14;;;;;;;5.23;1.23;;;10.20;99.90;;;;;;4975169;28;20306;-84
2021/11/18 01:00:42;;;;;;;5.87;1.13;;;10.20;99.90;;;;;;4995934;28;20230;-84
2021/11/18 01:03:08;;;;;;;10.47;1.80;;;10.20;99.90;;;;;;4989395;28;20228;-85
2021/11/18 01:05:38;;;;;;;7.70;1.23;;;10.20;99.90;;;;;;4991420;28;20200;-84
2021/11/18 01:08:06;;;;;;;2.40;1.60;;;10.30;99.90;;;;;;4991710;28;20413;-84
2021/11/18 01:10:36;;;;;;;9.73;3.03;;;10.30;99.90;;;;;;4991560;28;20285;-85
2021/11/18 01:13:04;;;;;;;6.30;2.53;;;10.30;99.90;;;;;;4990927;28;20306;-83
2021/11/18 01:15:34;;;;;;;5.63;1.83;;;10.30;99.90;;;;;;4985252;28;20232;-82
2021/11/18 01:18:01;;;;;;;2.57;2.10;;;10.40;99.90;;;;;;4992060;28;20220;-81
2021/11/18 01:20:28;;;;;;;8.70;2.03;;;10.40;99.90;;;;;;4994079;28;20247;-84
2021/11/18 01:22:57;;;;;;;2.47;1.43;;;10.50;99.90;;;;;;4994179;28;20224;-85
2021/11/18 01:25:23;;;;;;;2.07;1.10;;;10.50;99.90;;;;;;4992552;28;20231;-85
2021/11/18 01:27:49;;;;;;;4.27;0.83;;;10.50;99.90;;;;;;4994444;28;20291;-83
2021/11/18 01:30:22;;;;;;;6.23;2.07;;;10.50;99.90;;;;;;4992444;28;20763;-83
2021/11/18 01:32:50;;;;;;;1.37;0.57;;;10.50;99.90;;;;;;4991139;28;20188;-82
2021/11/18 01:35:16;;;;;;;11.13;1.63;;;10.50;99.90;;;;;;4998334;28;20219;-84
2021/11/18 01:37:42;;;;;;;7.27;1.60;;;10.50;99.90;;;;;;4989909;28;20330;-84
2021/11/18 01:40:12;;;;;;;8.70;2.13;;;10.50;99.90;;;;;;4991095;28;20761;-84
2021/11/18 01:42:38;;;;;;;3.53;1.50;;;10.50;99.90;;;;;;4992839;28;20216;-83
2021/11/18 01:45:06;;;;;;;8.13;2.17;;;10.50;99.90;;;;;;4956903;28;20299;-85
2021/11/18 01:47:32;;;;;;;3.10;1.47;;;10.50;99.90;;;;;;4992062;28;20187;-84
2021/11/18 01:49:58;;;;;;;3.50;2.73;;;10.50;99.90;;;;;;4991834;28;20234;-84
2021/11/18 01:52:27;;;;;;;3.97;2.17;;;10.60;99.90;;;;;;4993293;28;20219;-84
2021/11/18 01:54:54;;;;;;;19.37;2.37;;;10.60;99.90;;;;;;4990829;28;20228;-83
2021/11/18 01:57:27;;;;;;;2.73;1.27;;;10.60;99.90;;;;;;4990453;28;20229;-84
2021/11/18 01:59:55;;;;;;;1.33;1.23;;;10.60;99.90;;;;;;4991810;28;20231;-84
2021/11/18 02:02:24;;;;;;;6.70;1.43;;;10.60;99.90;;;;;;4991817;28;20192;-83
2021/11/18 02:04:56;;;;;;;12.00;2.73;;;10.60;99.90;;;;;;4988409;28;20220;-84
2021/11/18 02:07:23;;;;;;;1.27;1.17;;;10.60;99.90;;;;;;4991143;28;20246;-84
2021/11/18 02:09:50;;;;;;;5.03;1.73;;;10.60;99.90;;;;;;4993405;28;20219;-84
2021/11/18 02:12:23;;;;;;;4.27;1.47;;;10.60;99.90;;;;;;4975153;28;20420;-85
2021/11/18 02:14:49;;;;;;;9.97;2.17;;;10.60;99.90;;;;;;4994398;28;20222;-84
2021/11/18 02:17:17;;;;;;;6.53;1.40;;;10.60;99.90;;;;;;4994727;28;20223;-84
2021/11/18 02:19:56;;;;;;;6.47;2.63;;;10.60;99.90;;;;;;4993400;28;20475;-83
2021/11/18 02:22:23;;;;;;;2.60;1.13;;;10.70;99.90;;;;;;4977847;28;20231;-84
2021/11/18 02:24:53;;;;;;;9.13;1.40;;;10.70;99.90;;;;;;4988702;28;20234;-84
2021/11/18 02:27:21;;;;;;;8.27;2.50;;;10.70;99.90;;;;;;4992910;28;20938;-84
2021/11/18 02:29:49;;;;;;;5.97;1.60;;;10.70;99.90;;;;;;4992749;28;20191;-84
2021/11/18 02:32:20;;;;;;;8.27;2.57;;;10.70;99.90;;;;;;4994499;28;20191;-85
2021/11/18 02:34:53;;;;;;;3.07;1.10;;;10.80;99.90;;;;;;4995489;28;20255;-82
2021/11/18 02:37:20;;;;;;;3.33;1.67;;;10.80;99.90;;;;;;4994685;28;20755;-85
2021/11/18 02:39:46;;;;;;;5.50;1.83;;;10.80;99.90;;;;;;4982425;28;20238;-84
2021/11/18 02:42:13;;;;;;;1.27;1.00;;;10.80;99.90;;;;;;4972423;28;20269;-83
2021/11/18 02:44:40;;;;;;;9.40;2.73;;;10.80;99.90;;;;;;4992486;28;20210;-84
2021/11/18 02:47:12;;;;;;;4.43;2.20;;;10.80;99.90;;;;;;4991868;28;20192;-84
2021/11/18 02:49:52;;;;;;;13.13;1.47;;;10.80;99.90;;;;;;4994705;28;20222;-82
2021/11/18 02:52:24;;;;;;;5.13;1.43;;;10.80;99.90;;;;;;4993596;28;20223;-85
2021/11/18 02:54:51;;;;;;;17.10;2.20;;;10.80;99.90;;;;;;4994262;28;20223;-86
2021/11/18 02:57:16;;;;;;;5.80;2.50;;;10.80;99.90;;;;;;4993615;28;20591;-83
2021/11/18 02:59:43;;;;;;;10.30;1.30;;;10.70;99.90;;;;;;4977810;28;20200;-84
2021/11/18 03:02:09;;;;;;;5.77;1.50;;;10.80;99.90;;;;;;5001866;28;20206;-85
2021/11/18 03:04:36;;;;;;;4.67;1.27;;;10.80;99.90;;;;;;4996379;28;20218;-83
2021/11/18 03:07:02;;;;;;;6.43;1.37;;;10.80;99.90;;;;;;4977619;28;20318;-84
2021/11/18 03:09:29;;;;;;;6.50;1.37;;;10.80;99.90;;;;;;4991897;28;20243;-85
2021/11/18 03:11:58;;;;;;;3.03;2.30;;;10.80;99.90;;;;;;4969060;28;20231;-86
2021/11/18 03:14:24;;;;;;;4.00;1.27;;;10.70;99.90;;;;;;4993760;28;20188;-85
2021/11/18 03:16:49;;;;;;;8.23;1.50;;;10.80;99.90;;;;;;4976357;28;20224;-85
2021/11/18 03:19:15;;;;;;;6.07;1.73;;;10.80;99.90;;;;;;4975532;28;20212;-83
2021/11/18 03:21:41;;;;;;;2.83;1.63;;;10.80;99.90;;;;;;4995494;28;20228;-83
2021/11/18 03:24:08;;;;;;;10.40;2.40;;;10.80;99.90;;;;;;4992921;28;20227;-85
2021/11/18 03:26:34;;;;;;;6.07;1.63;;;10.90;99.90;;;;;;4992732;28;20187;-84
2021/11/18 03:29:01;;;;;;;2.00;1.73;;;10.80;99.90;;;;;;4999506;28;20203;-87
2021/11/18 03:31:27;;;;;;;3.70;0.73;;;10.80;99.90;;;;;;4987944;28;20239;-85
2021/11/18 03:34:00;;;;;;;0.97;0.57;;;10.80;99.90;;;;;;4998090;28;20670;-84
2021/11/18 03:36:28;;;;;;;9.60;2.00;;;10.80;99.90;;;;;;4993939;28;20227;-84
2021/11/18 03:38:55;;;;;;;4.70;1.27;;;10.80;99.90;;;;;;4997473;28;20319;-84
2021/11/18 03:41:24;;;;;;;4.53;0.80;;;10.90;99.90;;;;;;4996212;28;20995;-82
2021/11/18 03:43:58;;;;;;;10.27;1.60;;;10.90;99.90;;;;;;4997481;28;20242;-85
2021/11/18 03:46:30;;;;;;;6.53;2.47;;;10.90;99.90;;;;;;4996185;28;20215;-84
2021/11/18 03:48:56;;;;;;;0.83;0.77;;;10.90;99.90;;;;;;4996093;28;20218;-83
2021/11/18 03:51:23;;;;;;;6.03;1.30;;;10.80;99.90;;;;;;4996524;28;21385;-83
2021/11/18 03:53:49;;;;;;;3.83;1.30;;;10.80;99.90;;;;;;5012837;28;20200;-84
2021/11/18 03:56:19;;;;;;;5.67;1.77;;;10.80;99.90;;;;;;4981481;28;20270;-86
2021/11/18 03:58:45;;;;;;;1.37;0.97;;;10.80;99.90;;;;;;4998708;28;20218;-85
2021/11/18 04:01:11;;;;;;;10.23;1.73;;;10.80;99.90;;;;;;4998514;28;20223;-85
2021/11/18 04:03:38;;;;;;;7.60;1.70;;;10.80;99.90;;;;;;4995494;28;20247;-84
2021/11/18 04:06:05;;;;;;;5.93;1.90;;;10.80;99.90;;;;;;4992665;28;20223;-85
2021/11/18 04:08:31;;;;;;;5.10;1.70;;;10.70;99.90;;;;;;4994774;28;20718;-84
2021/11/18 04:10:57;;;;;;;8.57;1.47;;;10.80;99.90;;;;;;4995166;28;20223;-84
2021/11/18 04:13:24;;;;;;;5.60;0.97;;;10.70;99.90;;;;;;4996178;28;20304;-84
2021/11/18 04:15:50;;;;;;;3.53;1.73;;;10.70;99.90;;;;;;4998197;28;20245;-84
2021/11/18 04:18:20;;;;;;;2.43;2.10;;;10.70;99.90;;;;;;4994426;28;20223;-83
2021/11/18 04:20:49;;;;;;;6.03;1.57;;;10.70;99.90;;;;;;4995065;28;20210;-83
2021/11/18 04:23:16;;;;;;;9.73;2.97;;;10.80;99.90;;;;;;4994780;28;20191;-83
2021/11/18 04:25:42;;;;;;;0.83;0.70;;;10.80;99.90;;;;;;4995074;28;20242;-83
2021/11/18 04:28:10;;;;;;;13.60;1.53;;;10.80;99.90;;;;;;4995741;28;20220;-83
2021/11/18 04:31:02;;;;;;;21.87;2.10;;;10.80;99.90;;;;;;4980892;28;20235;-85
2021/11/18 04:33:30;;;;;;;1.63;0.97;;;10.70;99.90;;;;;;4991845;28;20311;-83
2021/11/18 04:35:57;;;;;;;4.83;1.73;;;10.80;99.90;;;;;;4996457;28;20224;-82
2021/11/18 04:38:23;;;;;;;8.83;2.00;;;10.80;99.90;;;;;;5002716;28;20192;-84
2021/11/18 04:40:49;;;;;;;3.40;1.87;;;10.80;99.90;;;;;;4996104;28;20219;-85
2021/11/18 04:43:16;;;;;;;6.87;1.03;;;10.80;99.90;;;;;;4994029;28;20223;-82
2021/11/18 04:45:42;;;;;;;1.63;1.37;;;10.80;99.90;;;;;;4997083;28;20224;-86
2021/11/18 04:48:08;;;;;;;9.73;1.70;;;10.80;99.90;;;;;;4979104;28;20249;-84
2021/11/18 04:50:35;;;;;;;5.33;1.00;;;10.80;99.90;;;;;;4980400;28;20463;-84
2021/11/18 04:53:03;;;;;;;12.10;1.90;;;10.90;99.90;;;;;;4996028;28;20207;-84
2021/11/18 04:55:30;;;;;;;5.90;1.80;;;10.80;99.90;;;;;;4994218;28;20220;-85
2021/11/18 04:57:56;;;;;;;4.93;0.90;;;10.90;99.90;;;;;;4991836;28;20223;-82
2021/11/18 05:00:30;;;;;;;1.97;1.10;;;10.80;99.90;;;;;;4994000;28;20716;-84
2021/11/18 05:02:56;;;;;;;7.73;1.77;;;10.90;99.90;;;;;;5000056;28;20247;-83
2021/11/18 05:05:24;;;;;;;2.33;2.00;;;10.90;99.90;;;;;;4989589;28;20195;-84
2021/11/18 05:07:51;;;;;;;12.33;2.37;;;10.90;99.90;;;;;;4993685;28;20245;-82
2021/11/18 05:10:17;;;;;;;8.37;1.40;;;10.90;99.90;;;;;;4995578;28;20239;-83
2021/11/18 05:12:43;;;;;;;7.80;2.60;;;10.80;99.90;;;;;;5000227;28;20299;-82
2021/11/18 05:15:14;;;;;;;4.17;2.27;;;10.90;99.90;;;;;;4990872;28;20678;-85
2021/11/18 05:17:40;;;;;;;4.80;1.93;;;10.80;99.90;;;;;;4993064;28;20183;-82
2021/11/18 05:20:07;;;;;;;6.97;1.93;;;10.90;99.90;;;;;;4994162;28;20195;-83
2021/11/18 05:22:34;;;;;;;1.00;1.00;;;10.80;99.90;;;;;;4988977;28;20219;-84
2021/11/18 05:25:00;;;;;;;12.47;1.57;;;10.80;99.90;;;;;;4993543;28;20756;-84
2021/11/18 05:27:25;;;;;;;20.60;1.80;;;10.80;99.90;;;;;;4993724;28;20280;-84
2021/11/18 05:29:52;;;;;;;6.37;1.20;;;10.90;99.90;;;;;;4993308;28;20276;-83
2021/11/18 05:32:18;;;;;;;4.40;1.73;;;10.90;99.90;;;;;;4978401;28;20188;-83
2021/11/18 05:34:44;;;;;;;2.20;1.00;;;10.90;99.90;;;;;;4993853;28;20238;-83
2021/11/18 05:37:10;;;;;;;10.93;1.80;;;10.90;99.90;;;;;;5009653;28;20216;-83
2021/11/18 05:39:36;;;;;;;12.93;2.10;;;10.90;99.90;;;;;;5001954;28;20207;-84
2021/11/18 05:42:02;;;;;;;7.07;2.53;;;10.90;99.90;;;;;;4994741;28;20581;-83
2021/11/18 05:44:28;;;;;;;2.67;1.97;;;10.90;99.90;;;;;;4991939;28;20643;-82
2021/11/18 05:46:54;;;;;;;10.60;1.87;;;10.90;99.90;;;;;;4975478;28;20266;-83
2021/11/18 05:49:20;;;;;;;7.50;1.93;;;10.90;99.90;;;;;;4991732;28;20215;-82
2021/11/18 05:51:48;;;;;;;11.23;1.43;;;10.90;99.90;;;;;;4978010;28;20258;-84
2021/11/18 05:54:15;;;;;;;2.67;1.27;;;10.90;99.90;;;;;;4992111;28;20362;-84
2021/11/18 05:56:43;;;;;;;1.57;0.87;;;10.90;99.90;;;;;;4993942;28;20275;-84
2021/11/18 05:59:10;;;;;;;2.47;0.90;;;10.90;99.90;;;;;;4988434;28;20188;-84
2021/11/18 06:01:36;;;;;;;3.20;0.97;;;10.80;99.90;;;;;;4973483;28;20227;-83
2021/11/18 06:04:03;;;;;;;3.33;1.67;;;10.90;99.90;;;;;;4990219;28;20222;-83
2021/11/18 06:06:29;;;;;;;7.07;2.10;;;10.80;99.90;;;;;;4992076;28;20290;-82
2021/11/18 06:09:02;;;;;;;6.27;1.53;;;10.80;99.90;;;;;;4994898;28;20236;-84
2021/11/18 06:11:30;;;;;;;0.57;0.50;;;10.80;99.90;;;;;;4993828;28;20334;-84
2021/11/18 06:13:56;;;;;;;3.17;1.50;;;10.80;99.90;;;;;;4991789;28;20219;-84
2021/11/18 06:16:24;;;;;;;3.47;1.27;;;10.80;99.90;;;;;;4992160;28;20228;-84
2021/11/18 06:18:51;;;;;;;6.53;1.60;;;10.80;99.90;;;;;;4992284;28;20994;-86
2021/11/18 06:21:17;;;;;;;5.60;2.13;;;10.80;99.90;;;;;;4987715;28;20712;-86
2021/11/18 06:23:43;;;;;;;6.43;1.00;;;10.70;99.90;;;;;;4992008;28;20199;-82
2021/11/18 06:26:10;;;;;;;16.37;2.57;;;10.70;99.90;;;;;;4992241;28;20191;-86
2021/11/18 06:28:36;;;;;;;9.20;1.60;;;10.70;99.90;;;;;;4976123;28;20234;-86
2021/11/18 06:31:07;;;;;;;2.87;2.47;;;10.70;99.90;;;;;;4993319;28;20341;-86
2021/11/18 06:33:33;;;;;;;5.90;0.93;;;10.70;99.90;;;;;;4994089;28;20298;-85
2021/11/18 06:35:59;;;;;;;1.13;0.90;;;10.80;99.90;;;;;;4992270;28;20234;-87
2021/11/18 06:38:25;;;;;;;6.37;1.10;;;10.80;99.90;;;;;;4992711;28;20273;-86
2021/11/18 06:40:52;;;;;;;6.40;1.50;;;10.80;99.90;;;;;;4989891;28;20227;-85
2021/11/18 06:43:19;;;;;;;3.77;1.87;;;10.80;99.90;;;;;;4973987;28;20220;-85
2021/11/18 06:45:46;;;;;;;3.07;1.07;;;10.80;99.90;;;;;;4995022;28;20609;-85
2021/11/18 06:48:17;;;;;;;13.43;1.60;;;10.70;99.90;;;;;;4993123;28;20270;-85
2021/11/18 06:50:44;;;;;;;4.27;2.83;;;10.70;99.90;;;;;;4992232;28;20214;-85
2021/11/18 06:53:11;;;;;;;7.47;0.87;;;10.60;99.90;;;;;;4977280;28;20199;-85
2021/11/18 06:55:37;;;;;;;9.70;1.20;;;10.60;99.90;;;;;;4976916;28;20536;-85
2021/11/18 06:58:03;;;;;;;0.80;0.80;;;10.60;99.90;;;;;;4998447;28;20240;-85
2021/11/18 07:00:29;;;;;;;1.53;1.27;;;10.50;99.90;;;;;;4988643;28;20639;-85
2021/11/18 07:02:55;;;;;;;3.07;1.30;;;10.50;99.90;;;;;;4996013;28;20575;-85
2021/11/18 07:05:22;;;;;;;7.37;1.40;;;10.50;99.90;;;;;;4989758;28;20202;-85
2021/11/18 07:07:48;;;;;;;3.70;1.30;;;10.40;99.90;;;;;;4991881;28;20277;-84
2021/11/18 07:10:15;;;;;;;3.80;0.77;;;10.40;99.90;;;;;;4996186;28;20773;-84
2021/11/18 07:12:41;;;;;;;6.90;1.70;;;10.40;99.90;;;;;;4998017;28;20297;-83
2021/11/18 07:15:10;;;;;;;1.70;1.00;;;10.40;99.90;;;;;;4995408;28;20278;-83
2021/11/18 07:17:36;;;;;;;3.90;2.87;;;10.40;99.90;;;;;;4996440;28;20308;-83
2021/11/18 07:20:03;;;;;;;6.93;1.97;;;10.40;99.90;;;;;;4997507;28;21054;-83
2021/11/18 07:22:30;;;;;;;13.97;5.70;;;10.40;99.90;;;;;;4996198;28;20270;-82
2021/11/18 07:24:58;;;;;;;8.43;2.90;;;10.40;99.90;;;;;;4998028;28;20220;-86
2021/11/18 07:27:24;;;;;;;1.20;0.93;;;10.50;99.90;;;;;;4995934;28;20286;-84
2021/11/18 07:29:49;;;;;;;2.47;0.90;;;10.50;99.90;;;;;;4976794;28;20640;-84
2021/11/18 07:32:16;;;;;;;2.10;1.50;;;10.50;99.90;;;;;;4997520;28;20200;-86
2021/11/18 07:34:42;;;;;;;9.73;1.70;;;10.50;99.90;;;;;;4989124;28;20255;-85
2021/11/18 07:37:07;;;;;;;6.63;1.53;;;10.50;99.90;;;;;;4987058;28;20332;-85
2021/11/18 07:39:33;;;;;;;3.47;1.10;;;10.50;99.90;;;;;;4976236;28;20230;-86
2021/11/18 07:41:59;;;;;;;4.07;0.97;;;10.50;99.90;;;;;;5002773;28;20227;-85
2021/11/18 07:44:25;;;;;;;1.37;1.27;;;10.50;99.90;;;;;;4996302;28;20191;-84
2021/11/18 07:46:51;;;;;;;4.67;1.40;;;10.60;99.90;;;;;;4979774;28;20493;-85
2021/11/18 07:49:18;;;;;;;4.93;1.70;;;10.60;99.90;;;;;;4996041;28;20220;-85
2021/11/18 07:51:44;;;;;;;3.20;2.07;;;10.70;99.90;;;;;;4996237;28;20282;-83
2021/11/18 07:54:14;;;;;;;1.00;0.97;;;10.80;99.90;;;;;;4978943;28;20219;-83
2021/11/18 07:56:40;;;;;;;15.37;2.43;;;10.80;99.90;;;;;;4987974;28;20214;-83
2021/11/18 07:59:07;;;;;;;1.50;1.17;;;10.90;99.90;;;;;;4980644;28;20192;-84
2021/11/18 08:01:33;;;;;;;2.47;1.47;;;10.80;99.90;;;;;;4995002;28;20223;-85
2021/11/18 08:03:59;;;;;;;1.63;0.97;;;10.80;99.90;;;;;;4993423;28;20273;-85
2021/11/18 08:06:28;;;;;;;8.40;1.70;;;10.80;99.90;;;;;;4977937;28;20239;-85
2021/11/18 08:08:55;;;;;;;7.70;1.20;;;10.80;99.90;;;;;;4996339;28;20638;-83
2021/11/18 08:11:25;;;;;;;10.53;1.43;;;10.80;99.90;;;;;;4997623;28;20614;-87
2021/11/18 08:13:51;;;;;;;2.90;1.90;;;10.80;99.90;;;;;;4995636;28;20223;-83
2021/11/18 08:16:17;;;;;;;4.07;1.00;;;10.80;99.90;;;;;;4971008;28;20224;-84
2021/11/18 08:18:43;;;;;;;10.10;0.90;;;10.90;99.90;;;;;;4978513;28;20219;-86
2021/11/18 08:21:12;;;;;;;1.47;1.37;;;10.90;99.90;;;;;;5004362;28;20219;-84
2021/11/18 08:23:38;;;;;;;3.90;2.07;;;10.90;99.90;;;;;;5003651;28;20192;-84
2021/11/18 08:26:08;;;;;;;7.40;2.50;;;11.00;99.90;;;;;;5012541;28;20617;-85
2021/11/18 08:28:34;;;;;;;2.70;1.80;;;11.00;99.90;;;;;;4997498;28;20250;-89
2021/11/18 08:31:01;;;;;;;6.83;0.80;;;11.10;99.90;;;;;;4996275;28;20231;-86
2021/11/18 08:33:28;;;;;;;10.93;1.67;;;11.10;99.90;;;;;;4993262;28;20261;-85
2021/11/18 08:35:54;;;;;;;5.20;1.80;;;11.10;99.90;;;;;;4996023;28;20665;-85
2021/11/18 08:38:20;;;;;;;4.57;1.30;;;11.10;99.90;;;;;;4996530;28;20202;-85
2021/11/18 08:41:02;;;;;;;0.53;0.50;;;11.10;99.90;;;;;;5012051;28;20234;-86
2021/11/18 08:43:28;;;;;;;2.60;0.90;;;11.10;99.90;;;;;;4986057;28;20224;-85
2021/11/18 08:45:55;;;;;;;4.23;1.40;;;11.20;99.90;;;;;;4994768;28;20219;-85
2021/11/18 08:48:21;;;;;;;3.80;1.30;;;11.10;99.90;;;;;;4987157;28;20226;-86
2021/11/18 08:50:51;;;;;;;2.03;1.03;;;11.20;99.90;;;;;;4995029;28;20684;-85
2021/11/18 08:53:19;;;;;;;4.40;1.20;;;11.10;99.90;;;;;;4997114;28;20211;-87
2021/11/18 08:55:46;;;;;;;14.30;1.40;;;11.20;99.90;;;;;;4994732;28;20556;-84
2021/11/18 08:58:14;;;;;;;5.70;2.27;;;11.20;99.90;;;;;;4994476;28;20690;-84
2021/11/18 09:00:42;;;;;;;6.10;1.53;;;11.20;99.90;;;;;;4993905;28;20236;-85
2021/11/18 09:03:09;;;;;;;5.37;0.87;;;11.30;99.90;;;;;;4993900;28;20684;-86
2021/11/18 09:05:36;;;;;;;11.40;1.73;;;11.50;99.90;;;;;;4993754;28;20556;-82
2021/11/18 09:08:04;;;;;;;0.80;0.80;;;11.60;99.90;;;;;;4979922;28;20235;-81
2021/11/18 09:10:31;;;;;;;1.80;1.67;;;11.70;99.90;;;;;;4995005;28;20235;-82
2021/11/18 09:12:57;;;;;;;4.33;2.13;;;11.80;99.90;;;;;;4993116;28;20220;-82
2021/11/18 09:15:26;;;;;;;2.93;1.93;;;11.90;99.90;;;;;;4993242;28;20290;-82
2021/11/18 09:17:53;;;;;;;5.57;1.80;;;12.00;99.90;;;;;;4992250;28;20220;-82
2021/11/18 09:20:20;;;;;;;3.30;1.57;;;12.10;99.90;;;;;;5010743;28;20188;-83
2021/11/18 09:22:47;;;;;;;4.90;1.40;;;12.30;99.90;;;;;;4995722;28;20219;-81
2021/11/18 09:25:16;;;;;;;1.60;0.80;;;12.30;99.90;;;;;;4994778;28;20253;-82
2021/11/18 09:27:48;;;;;;;7.60;2.20;;;12.30;99.90;;;;;;4996443;28;20228;-82
2021/11/18 09:30:22;;;;;;;7.23;1.23;;;12.40;99.90;;;;;;4991456;28;20243;-82
2021/11/18 09:32:48;;;;;;;6.40;1.73;;;12.50;99.90;;;;;;4990026;28;20192;-83
2021/11/18 09:35:17;;;;;;;2.80;1.63;;;12.60;99.90;;;;;;4990565;28;20192;-82
2021/11/18 09:37:43;;;;;;;6.43;1.90;;;12.60;99.90;;;;;;4991603;28;20219;-82
2021/11/18 09:40:14;;;;;;;2.83;1.67;;;12.50;99.90;;;;;;4993367;28;21088;-82
2021/11/18 09:43:14;;;;;;;14.50;1.93;;;12.60;99.90;;;;;;4994494;28;20212;-83
2021/11/18 09:45:50;;;;;;;6.60;1.93;;;12.70;99.90;;;;;;4994136;28;20234;-82
2021/11/18 09:48:50;;;;;;;3.67;2.13;;;13.00;99.90;;;;;;4992728;28;20695;-82
2021/11/18 09:51:36;;;;;;;6.73;1.97;;;12.90;99.90;;;;;;4994365;28;20265;-83
2021/11/18 09:54:33;;;;;;;10.33;1.43;;;13.00;99.90;;;;;;4993204;28;20215;-82
2021/11/18 09:57:30;;;;;;;0.53;0.50;;;12.80;99.90;;;;;;4994310;28;20285;-86
2021/11/18 10:00:16;;;;;;;9.87;1.77;;;12.70;99.90;;;;;;4992320;28;20270;-86
2021/11/18 10:02:53;;;;;;;8.90;2.17;;;12.70;99.90;;;;;;4992553;28;20237;-86
2021/11/18 10:05:31;;;;;;;6.47;1.57;;;12.70;99.90;;;;;;4993569;28;20198;-83
2021/11/18 10:08:01;;;;;;;6.80;1.40;;;12.80;99.90;;;;;;4993047;28;20235;-86
2021/11/18 10:10:41;;;;;;;9.77;3.23;;;12.80;99.90;;;;;;4992512;28;20231;-86
2021/11/18 10:13:26;;;;;;;2.20;0.93;;;12.90;99.90;;;;;;4993422;28;20215;-84
2021/11/18 10:16:01;;;;;;;4.40;1.50;;;13.00;99.90;;;;;;5008001;28;20741;-86
2021/11/18 10:18:38;;;;;;;0.80;0.67;;;13.00;99.90;;;;;;5008509;28;20298;-84
2021/11/18 10:21:27;;;;;;;5.33;1.70;;;13.20;99.90;;;;;;4986810;28;20220;-86
2021/11/18 10:23:58;;;;;;;7.77;1.90;;;13.20;99.90;;;;;;4990403;28;21342;-85
2021/11/18 10:26:35;;;;;;;5.40;0.80;;;13.20;99.90;;;;;;4991262;28;20191;-85
2021/11/18 10:29:01;;;;;;;10.00;1.43;;;13.40;99.90;;;;;;4991985;28;20211;-83
2021/11/18 10:31:49;;;;;;;5.17;0.93;;;13.30;99.90;;;;;;4992866;28;20234;-84
2021/11/18 10:34:41;;;;;;;3.00;1.53;;;13.40;99.90;;;;;;4992138;28;20315;-87
2021/11/18 10:37:21;;;;;;;9.50;2.43;;;13.40;99.90;;;;;;4993252;28;20219;-83
2021/11/18 10:39:55;;;;;;;3.37;1.17;;;13.40;99.90;;;;;;4992351;28;20239;-84
2021/11/18 10:42:33;;;;;;;4.53;1.83;;;13.40;99.90;;;;;;4991586;28;20222;-84
2021/11/18 10:45:28;;;;;;;3.50;1.33;;;13.40;99.90;;;;;;4990151;28;20337;-83
2021/11/18 10:48:04;;;;;;;4.53;0.87;;;13.40;99.90;;;;;;4987523;28;20305;-84
2021/11/18 10:51:00;;;;;;;7.00;2.60;;;13.40;99.90;;;;;;5009242;28;20210;-83
2021/11/18 10:53:42;;;;;;;3.97;1.67;;;13.40;99.90;;;;;;4989587;28;20204;-81
2021/11/18 10:56:16;;;;;;;2.37;1.30;;;13.30;99.90;;;;;;4993055;28;20214;-82
2021/11/18 10:58:48;;;;;;;2.77;1.07;;;13.50;99.90;;;;;;4983646;28;20811;-83
2021/11/18 11:01:26;;;;;;;0.70;0.50;;;13.40;99.90;;;;;;4991889;28;20234;-81
2021/11/18 11:04:01;;;;;;;5.30;1.57;;;13.10;99.90;;;;;;4992066;28;20588;-82
2021/11/18 11:06:49;;;;;;;7.37;0.87;;;13.10;99.90;;;;;;4987373;28;20246;-83
2021/11/18 11:09:22;;;;;;;4.20;1.63;;;13.10;99.90;;;;;;4992291;28;20305;-81
2021/11/18 11:12:24;;;;;;;2.03;1.03;;;13.30;99.90;;;;;;4993360;28;20314;-82
2021/11/18 11:15:20;;;;;;;5.10;1.70;;;13.30;99.90;;;;;;4986254;28;20273;-82
2021/11/18 11:18:14;;;;;;;11.63;2.20;;;13.40;99.90;;;;;;4995454;28;20188;-81
2021/11/18 11:20:52;;;;;;;9.53;2.20;;;13.40;99.90;;;;;;5008508;28;20242;-84
2021/11/18 11:23:42;;;;;;;3.53;1.30;;;13.30;99.90;;;;;;4990561;28;20616;-83
2021/11/18 11:26:26;;;;;;;10.07;1.47;;;13.20;99.90;;;;;;4993870;28;20226;-82
2021/11/18 11:29:15;;;;;;;3.03;1.27;;;13.20;99.90;;;;;;4993115;28;20220;-83
2021/11/18 11:32:00;;;;;;;4.67;1.10;;;13.10;99.90;;;;;;4993313;28;20255;-84
2021/11/18 11:34:55;;;;;;;5.40;1.80;;;13.00;99.90;;;;;;4992876;28;20215;-83
2021/11/18 11:37:58;;;;;;;5.33;2.23;;;12.90;99.90;;;;;;4991752;28;20227;-84
2021/11/18 11:40:24;;;;;;;6.83;1.90;;;12.90;99.90;;;;;;5016308;28;20267;-85
2021/11/18 11:43:01;;;;;;;2.47;1.40;;;12.90;99.90;;;;;;4998070;28;20314;-84
2021/11/18 11:45:54;;;;;;;5.10;1.50;;;12.90;99.90;;;;;;4996195;28;20215;-85
2021/11/18 11:48:47;;;;;;;10.27;2.27;;;12.80;99.90;;;;;;4995334;28;20226;-85
2021/11/18 11:51:28;;;;;;;5.00;1.03;;;12.80;99.90;;;;;;4993429;28;20231;-83
2021/11/18 11:54:11;;;;;;;2.63;1.33;;;12.80;99.90;;;;;;5007920;28;20537;-84
2021/11/18 11:56:41;;;;;;;8.47;1.40;;;12.80;99.90;;;;;;5008215;28;20199;-85
2021/11/18 11:59:32;;;;;;;2.90;1.07;;;12.80;99.90;;;;;;4993998;28;20277;-84
2021/11/18 12:02:21;;;;;;;7.83;1.67;;;12.70;99.90;;;;;;4995549;28;20225;-84
2021/11/18 12:04:55;;;;;;;7.73;1.30;;;12.70;99.90;;;;;;4995939;28;20298;-85
2021/11/18 12:08:06;;;;;;;6.57;1.17;;;12.70;99.90;;;;;;4994211;28;20212;-85
2021/11/18 12:10:40;;;;;;;3.90;1.93;;;12.60;99.90;;;;;;4991536;28;20270;-82
2021/11/18 12:13:39;;;;;;;3.63;1.40;;;12.70;99.90;;;;;;4986454;28;20235;-84
2021/11/18 12:16:29;;;;;;;7.73;1.57;;;12.60;99.90;;;;;;4996369;28;20227;-84
2021/11/18 12:18:58;;;;;;;8.50;1.90;;;12.60;99.90;;;;;;5009614;28;20247;-85
2021/11/18 12:21:24;;;;;;;3.50;0.67;;;12.60;99.90;;;;;;5011146;28;20590;-84
2021/11/18 12:24:08;;;;;;;10.63;2.63;;;12.60;99.90;;;;;;4998116;28;20276;-85
2021/11/18 12:26:58;;;;;;;14.47;2.10;;;12.60;99.90;;;;;;4996461;28;20186;-84
2021/11/18 12:29:26;;;;;;;7.83;1.40;;;12.60;99.90;;;;;;4993951;28;20223;-85
2021/11/18 12:32:16;;;;;;;5.30;2.10;;;12.50;99.90;;;;;;4993725;28;21245;-83
2021/11/18 12:34:58;;;;;;;9.33;2.67;;;12.50;99.90;;;;;;5007255;28;20314;-83
2021/11/18 12:37:46;;;;;;;6.53;2.07;;;12.50;99.90;;;;;;4994708;28;20231;-85
2021/11/18 12:40:38;;;;;;;1.60;1.20;;;12.50;99.90;;;;;;4993110;28;20246;-83
2021/11/18 12:43:23;;;;;;;5.87;1.27;;;12.50;99.90;;;;;;4988250;28;20216;-85
2021/11/18 12:46:15;;;;;;;4.40;1.00;;;12.50;99.90;;;;;;4994051;28;20216;-83
2021/11/18 12:48:53;;;;;;;3.03;0.83;;;12.50;99.90;;;;;;4993092;28;20211;-84
2021/11/18 12:51:20;;;;;;;6.17;2.63;;;12.50;99.90;;;;;;5001888;28;20235;-82
2021/11/18 12:54:20;;;;;;;3.00;1.77;;;12.60;99.90;;;;;;4994373;28;20278;-85
2021/11/18 12:56:48;;;;;;;2.20;1.60;;;12.60;99.90;;;;;;4993508;28;20214;-83
2021/11/18 12:59:37;;;;;;;2.43;1.03;;;12.60;99.90;;;;;;4993237;28;20192;-84
2021/11/18 13:02:12;;;;;;;5.37;1.90;;;12.60;99.90;;;;;;4996538;28;20290;-82
2021/11/18 13:04:43;;;;;;;7.80;2.27;;;12.70;99.90;;;;;;4981955;28;21035;-81
2021/11/18 13:07:47;;;;;;;7.97;1.43;;;12.70;99.90;;;;;;4986108;28;20273;-84